sensor_id;sensor_type;location;lat;lon;timestamp;P1;durP1;ratioP1;P2;durP2;ratioP2
18649;SDS011;9454;53.516;10.478;2022-10-16T00:05:41;2.38;;;1.77;;
18649;SDS011;9454;53.516;10.478;2022-10-16T00:09:53;2.20;;;1.77;;
18649;SDS011;9454;53.516;10.478;2022-10-16T00:12:58;2.88;;;1.98;;
18649;SDS011;9454;53.516;10.478;2022-10-16T00:16:01;2.42;;;1.67;;
18649;SDS011;9454;53.516;10.478;2022-10-16T00:19:04;5.50;;;2.00;;
18649;SDS011;9454;53.516;10.478;2022-10-16T00:22:06;5.45;;;1.80;;
18649;SDS011;9454;53.516;10.478;2022-10-16T00:25:11;3.38;;;1.98;;
18649;SDS011;9454;53.516;10.478;2022-10-16T00:28:18;7.60;;;2.10;;
18649;SDS011;9454;53.516;10.478;2022-10-16T00:31:21;1.92;;;1.67;;
18649;SDS011;9454;53.516;10.478;2022-10-16T00:34:24;3.03;;;2.00;;
18649;SDS011;9454;53.516;10.478;2022-10-16T00:37:26;3.20;;;1.58;;
18649;SDS011;9454;53.516;10.478;2022-10-16T00:40:29;3.20;;;2.20;;
18649;SDS011;9454;53.516;10.478;2022-10-16T00:43:39;2.83;;;1.77;;
18649;SDS011;9454;53.516;10.478;2022-10-16T00:46:42;2.38;;;1.55;;
18649;SDS011;9454;53.516;10.478;2022-10-16T00:49:45;6.05;;;1.95;;
18649;SDS011;9454;53.516;10.478;2022-10-16T00:52:48;3.35;;;1.88;;
18649;SDS011;9454;53.516;10.478;2022-10-16T00:55:54;6.22;;;2.08;;
18649;SDS011;9454;53.516;10.478;2022-10-16T00:58:58;3.53;;;1.75;;
18649;SDS011;9454;53.516;10.478;2022-10-16T01:02:05;2.13;;;1.58;;
18649;SDS011;9454;53.516;10.478;2022-10-16T01:05:08;3.80;;;1.95;;
18649;SDS011;9454;53.516;10.478;2022-10-16T01:08:12;5.13;;;1.63;;
18649;SDS011;9454;53.516;10.478;2022-10-16T01:11:17;5.97;;;1.80;;
18649;SDS011;9454;53.516;10.478;2022-10-16T01:14:26;4.95;;;1.67;;
18649;SDS011;9454;53.516;10.478;2022-10-16T01:17:31;4.70;;;2.00;;
18649;SDS011;9454;53.516;10.478;2022-10-16T01:20:38;2.65;;;1.75;;
18649;SDS011;9454;53.516;10.478;2022-10-16T01:23:45;5.55;;;2.10;;
18649;SDS011;9454;53.516;10.478;2022-10-16T01:30:21;4.85;;;2.15;;
18649;SDS011;9454;53.516;10.478;2022-10-16T01:33:28;4.68;;;1.95;;
18649;SDS011;9454;53.516;10.478;2022-10-16T01:36:34;3.53;;;1.80;;
18649;SDS011;9454;53.516;10.478;2022-10-16T01:39:39;2.38;;;1.83;;
18649;SDS011;9454;53.516;10.478;2022-10-16T01:42:45;2.10;;;1.42;;
18649;SDS011;9454;53.516;10.478;2022-10-16T01:45:52;3.17;;;1.73;;
18649;SDS011;9454;53.516;10.478;2022-10-16T01:48:56;5.00;;;1.50;;
18649;SDS011;9454;53.516;10.478;2022-10-16T01:52:00;5.00;;;1.75;;
18649;SDS011;9454;53.516;10.478;2022-10-16T01:55:05;5.03;;;1.80;;
18649;SDS011;9454;53.516;10.478;2022-10-16T01:58:09;5.40;;;1.40;;
18649;SDS011;9454;53.516;10.478;2022-10-16T02:01:15;3.30;;;1.25;;
18649;SDS011;9454;53.516;10.478;2022-10-16T02:04:23;5.43;;;1.20;;
18649;SDS011;9454;53.516;10.478;2022-10-16T02:07:27;3.70;;;1.38;;
18649;SDS011;9454;53.516;10.478;2022-10-16T02:10:30;2.72;;;1.10;;
18649;SDS011;9454;53.516;10.478;2022-10-16T02:13:40;2.30;;;1.33;;
18649;SDS011;9454;53.516;10.478;2022-10-16T02:16:52;3.60;;;1.23;;
18649;SDS011;9454;53.516;10.478;2022-10-16T02:20:03;0.85;;;0.85;;
18649;SDS011;9454;53.516;10.478;2022-10-16T02:23:07;3.45;;;1.73;;
18649;SDS011;9454;53.516;10.478;2022-10-16T02:26:19;4.20;;;1.20;;
18649;SDS011;9454;53.516;10.478;2022-10-16T02:29:25;4.15;;;0.82;;
18649;SDS011;9454;53.516;10.478;2022-10-16T02:32:30;1.50;;;0.93;;
18649;SDS011;9454;53.516;10.478;2022-10-16T02:35:36;2.85;;;0.85;;
18649;SDS011;9454;53.516;10.478;2022-10-16T02:38:40;1.17;;;0.80;;
18649;SDS011;9454;53.516;10.478;2022-10-16T02:41:45;3.72;;;0.88;;
18649;SDS011;9454;53.516;10.478;2022-10-16T02:44:54;5.25;;;0.93;;
18649;SDS011;9454;53.516;10.478;2022-10-16T02:47:58;2.40;;;0.75;;
18649;SDS011;9454;53.516;10.478;2022-10-16T02:51:04;1.55;;;0.90;;
18649;SDS011;9454;53.516;10.478;2022-10-16T02:54:08;3.38;;;0.98;;
18649;SDS011;9454;53.516;10.478;2022-10-16T02:57:11;1.30;;;1.00;;
18649;SDS011;9454;53.516;10.478;2022-10-16T03:00:15;2.17;;;0.90;;
18649;SDS011;9454;53.516;10.478;2022-10-16T03:03:20;1.77;;;0.93;;
18649;SDS011;9454;53.516;10.478;2022-10-16T03:06:22;5.57;;;1.63;;
18649;SDS011;9454;53.516;10.478;2022-10-16T03:09:25;1.33;;;0.80;;
18649;SDS011;9454;53.516;10.478;2022-10-16T03:12:28;2.88;;;1.17;;
18649;SDS011;9454;53.516;10.478;2022-10-16T03:15:32;6.90;;;0.85;;
18649;SDS011;9454;53.516;10.478;2022-10-16T03:18:36;1.23;;;0.73;;
18649;SDS011;9454;53.516;10.478;2022-10-16T03:21:38;2.78;;;1.08;;
18649;SDS011;9454;53.516;10.478;2022-10-16T03:24:41;1.80;;;0.80;;
18649;SDS011;9454;53.516;10.478;2022-10-16T03:27:43;1.55;;;0.60;;
18649;SDS011;9454;53.516;10.478;2022-10-16T03:30:46;1.05;;;0.70;;
18649;SDS011;9454;53.516;10.478;2022-10-16T03:33:49;2.28;;;1.00;;
18649;SDS011;9454;53.516;10.478;2022-10-16T03:36:52;3.70;;;0.95;;
18649;SDS011;9454;53.516;10.478;2022-10-16T03:40:00;3.20;;;0.85;;
18649;SDS011;9454;53.516;10.478;2022-10-16T03:43:02;3.80;;;0.68;;
18649;SDS011;9454;53.516;10.478;2022-10-16T03:46:05;3.83;;;0.80;;
18649;SDS011;9454;53.516;10.478;2022-10-16T03:49:09;1.30;;;0.68;;
18649;SDS011;9454;53.516;10.478;2022-10-16T03:52:13;0.75;;;0.63;;
18649;SDS011;9454;53.516;10.478;2022-10-16T03:55:16;1.58;;;1.00;;
18649;SDS011;9454;53.516;10.478;2022-10-16T03:58:18;1.38;;;0.77;;
18649;SDS011;9454;53.516;10.478;2022-10-16T04:01:22;1.33;;;0.70;;
18649;SDS011;9454;53.516;10.478;2022-10-16T04:04:26;6.05;;;0.90;;
18649;SDS011;9454;53.516;10.478;2022-10-16T04:07:32;3.55;;;0.90;;
18649;SDS011;9454;53.516;10.478;2022-10-16T04:10:35;1.98;;;1.00;;
18649;SDS011;9454;53.516;10.478;2022-10-16T04:13:37;7.53;;;1.02;;
18649;SDS011;9454;53.516;10.478;2022-10-16T04:16:40;1.88;;;0.77;;
18649;SDS011;9454;53.516;10.478;2022-10-16T04:19:45;0.93;;;0.65;;
18649;SDS011;9454;53.516;10.478;2022-10-16T04:22:48;1.08;;;0.60;;
18649;SDS011;9454;53.516;10.478;2022-10-16T04:25:50;2.90;;;0.70;;
18649;SDS011;9454;53.516;10.478;2022-10-16T04:28:53;2.25;;;0.80;;
18649;SDS011;9454;53.516;10.478;2022-10-16T04:31:56;2.35;;;0.80;;
18649;SDS011;9454;53.516;10.478;2022-10-16T04:35:00;3.78;;;0.90;;
18649;SDS011;9454;53.516;10.478;2022-10-16T04:38:04;4.93;;;0.93;;
18649;SDS011;9454;53.516;10.478;2022-10-16T04:41:07;0.73;;;0.60;;
18649;SDS011;9454;53.516;10.478;2022-10-16T04:44:10;1.48;;;0.70;;
18649;SDS011;9454;53.516;10.478;2022-10-16T04:47:13;3.60;;;0.80;;
18649;SDS011;9454;53.516;10.478;2022-10-16T04:50:17;1.98;;;0.80;;
18649;SDS011;9454;53.516;10.478;2022-10-16T04:53:35;1.92;;;0.80;;
18649;SDS011;9454;53.516;10.478;2022-10-16T04:56:38;1.10;;;0.55;;
18649;SDS011;9454;53.516;10.478;2022-10-16T04:59:48;2.85;;;0.80;;
18649;SDS011;9454;53.516;10.478;2022-10-16T05:02:52;4.28;;;0.63;;
18649;SDS011;9454;53.516;10.478;2022-10-16T05:05:56;4.75;;;0.80;;
18649;SDS011;9454;53.516;10.478;2022-10-16T05:08:59;0.73;;;0.73;;
18649;SDS011;9454;53.516;10.478;2022-10-16T05:12:01;0.77;;;0.77;;
18649;SDS011;9454;53.516;10.478;2022-10-16T05:15:11;4.30;;;0.98;;
18649;SDS011;9454;53.516;10.478;2022-10-16T05:18:14;2.08;;;0.80;;
18649;SDS011;9454;53.516;10.478;2022-10-16T05:21:20;5.00;;;0.80;;
18649;SDS011;9454;53.516;10.478;2022-10-16T05:24:23;2.20;;;0.70;;
18649;SDS011;9454;53.516;10.478;2022-10-16T05:27:25;3.60;;;0.70;;
18649;SDS011;9454;53.516;10.478;2022-10-16T05:30:28;1.55;;;0.77;;
18649;SDS011;9454;53.516;10.478;2022-10-16T05:33:31;1.25;;;1.00;;
18649;SDS011;9454;53.516;10.478;2022-10-16T05:36:35;2.40;;;0.70;;
18649;SDS011;9454;53.516;10.478;2022-10-16T05:39:37;2.15;;;0.82;;
18649;SDS011;9454;53.516;10.478;2022-10-16T05:42:40;1.17;;;0.75;;
18649;SDS011;9454;53.516;10.478;2022-10-16T05:45:42;2.40;;;0.77;;
18649;SDS011;9454;53.516;10.478;2022-10-16T05:48:45;1.98;;;1.00;;
18649;SDS011;9454;53.516;10.478;2022-10-16T05:51:49;1.23;;;0.73;;
18649;SDS011;9454;53.516;10.478;2022-10-16T05:54:51;9.20;;;1.00;;
18649;SDS011;9454;53.516;10.478;2022-10-16T05:57:54;3.72;;;0.82;;
18649;SDS011;9454;53.516;10.478;2022-10-16T06:00:58;2.60;;;1.00;;
18649;SDS011;9454;53.516;10.478;2022-10-16T06:04:01;2.35;;;0.82;;
18649;SDS011;9454;53.516;10.478;2022-10-16T06:07:05;2.38;;;1.10;;
18649;SDS011;9454;53.516;10.478;2022-10-16T06:10:08;2.33;;;1.02;;
18649;SDS011;9454;53.516;10.478;2022-10-16T06:13:11;4.18;;;1.20;;
18649;SDS011;9454;53.516;10.478;2022-10-16T06:16:13;8.15;;;1.00;;
18649;SDS011;9454;53.516;10.478;2022-10-16T06:19:16;6.93;;;0.98;;
18649;SDS011;9454;53.516;10.478;2022-10-16T06:22:20;7.25;;;0.80;;
18649;SDS011;9454;53.516;10.478;2022-10-16T06:25:22;2.83;;;1.05;;
18649;SDS011;9454;53.516;10.478;2022-10-16T06:28:25;1.23;;;0.57;;
18649;SDS011;9454;53.516;10.478;2022-10-16T06:31:28;0.75;;;0.60;;
18649;SDS011;9454;53.516;10.478;2022-10-16T06:34:32;0.98;;;0.80;;
18649;SDS011;9454;53.516;10.478;2022-10-16T06:37:37;1.50;;;0.80;;
18649;SDS011;9454;53.516;10.478;2022-10-16T06:40:39;1.13;;;0.80;;
18649;SDS011;9454;53.516;10.478;2022-10-16T06:43:42;2.92;;;0.90;;
18649;SDS011;9454;53.516;10.478;2022-10-16T06:46:46;1.33;;;0.77;;
18649;SDS011;9454;53.516;10.478;2022-10-16T06:49:49;3.85;;;1.10;;
18649;SDS011;9454;53.516;10.478;2022-10-16T06:52:56;1.75;;;1.35;;
18649;SDS011;9454;53.516;10.478;2022-10-16T06:56:06;1.95;;;1.00;;
18649;SDS011;9454;53.516;10.478;2022-10-16T06:59:09;2.22;;;1.00;;
18649;SDS011;9454;53.516;10.478;2022-10-16T07:02:11;1.08;;;0.80;;
18649;SDS011;9454;53.516;10.478;2022-10-16T07:05:14;2.17;;;1.20;;
18649;SDS011;9454;53.516;10.478;2022-10-16T07:08:19;2.83;;;1.15;;
18649;SDS011;9454;53.516;10.478;2022-10-16T07:11:22;8.02;;;1.90;;
18649;SDS011;9454;53.516;10.478;2022-10-16T07:14:25;3.63;;;0.90;;
18649;SDS011;9454;53.516;10.478;2022-10-16T07:17:27;1.80;;;1.20;;
18649;SDS011;9454;53.516;10.478;2022-10-16T07:20:30;2.15;;;1.02;;
18649;SDS011;9454;53.516;10.478;2022-10-16T07:23:34;3.38;;;1.25;;
18649;SDS011;9454;53.516;10.478;2022-10-16T07:26:36;3.55;;;1.30;;
18649;SDS011;9454;53.516;10.478;2022-10-16T07:29:40;4.20;;;0.90;;
18649;SDS011;9454;53.516;10.478;2022-10-16T07:32:42;3.83;;;0.88;;
18649;SDS011;9454;53.516;10.478;2022-10-16T07:35:49;8.18;;;1.02;;
18649;SDS011;9454;53.516;10.478;2022-10-16T07:38:53;2.10;;;1.02;;
18649;SDS011;9454;53.516;10.478;2022-10-16T07:42:00;4.03;;;0.82;;
18649;SDS011;9454;53.516;10.478;2022-10-16T07:45:03;3.30;;;1.40;;
18649;SDS011;9454;53.516;10.478;2022-10-16T07:48:06;6.38;;;1.27;;
18649;SDS011;9454;53.516;10.478;2022-10-16T07:51:08;3.17;;;1.17;;
18649;SDS011;9454;53.516;10.478;2022-10-16T07:54:12;5.70;;;1.15;;
18649;SDS011;9454;53.516;10.478;2022-10-16T07:57:15;3.30;;;1.13;;
18649;SDS011;9454;53.516;10.478;2022-10-16T08:00:20;2.22;;;0.98;;
18649;SDS011;9454;53.516;10.478;2022-10-16T08:03:23;2.63;;;1.10;;
18649;SDS011;9454;53.516;10.478;2022-10-16T08:06:26;5.13;;;1.40;;
18649;SDS011;9454;53.516;10.478;2022-10-16T08:09:29;3.13;;;1.20;;
18649;SDS011;9454;53.516;10.478;2022-10-16T08:12:32;3.17;;;1.10;;
18649;SDS011;9454;53.516;10.478;2022-10-16T08:15:34;3.97;;;1.10;;
18649;SDS011;9454;53.516;10.478;2022-10-16T08:18:37;9.63;;;1.40;;
18649;SDS011;9454;53.516;10.478;2022-10-16T08:21:41;3.08;;;0.80;;
18649;SDS011;9454;53.516;10.478;2022-10-16T08:24:45;1.15;;;0.95;;
18649;SDS011;9454;53.516;10.478;2022-10-16T08:27:48;6.18;;;1.00;;
18649;SDS011;9454;53.516;10.478;2022-10-16T08:30:52;2.17;;;1.00;;
18649;SDS011;9454;53.516;10.478;2022-10-16T08:33:54;2.00;;;0.82;;
18649;SDS011;9454;53.516;10.478;2022-10-16T08:36:57;2.38;;;1.25;;
18649;SDS011;9454;53.516;10.478;2022-10-16T08:40:01;4.28;;;1.00;;
18649;SDS011;9454;53.516;10.478;2022-10-16T08:43:08;6.18;;;1.30;;
18649;SDS011;9454;53.516;10.478;2022-10-16T08:46:44;1.80;;;0.88;;
18649;SDS011;9454;53.516;10.478;2022-10-16T08:49:55;3.15;;;1.15;;
18649;SDS011;9454;53.516;10.478;2022-10-16T08:52:58;4.13;;;1.17;;
18649;SDS011;9454;53.516;10.478;2022-10-16T08:56:03;1.10;;;1.00;;
18649;SDS011;9454;53.516;10.478;2022-10-16T08:59:06;2.35;;;1.00;;
18649;SDS011;9454;53.516;10.478;2022-10-16T09:02:19;0.95;;;0.70;;
18649;SDS011;9454;53.516;10.478;2022-10-16T09:05:29;5.50;;;1.10;;
18649;SDS011;9454;53.516;10.478;2022-10-16T09:08:40;2.97;;;0.90;;
18649;SDS011;9454;53.516;10.478;2022-10-16T09:11:50;2.85;;;1.38;;
18649;SDS011;9454;53.516;10.478;2022-10-16T09:15:00;1.90;;;0.90;;
18649;SDS011;9454;53.516;10.478;2022-10-16T09:18:05;1.75;;;0.80;;
18649;SDS011;9454;53.516;10.478;2022-10-16T09:21:09;1.90;;;0.90;;
18649;SDS011;9454;53.516;10.478;2022-10-16T09:24:15;1.10;;;0.77;;
18649;SDS011;9454;53.516;10.478;2022-10-16T09:27:21;2.30;;;0.65;;
18649;SDS011;9454;53.516;10.478;2022-10-16T09:30:26;1.10;;;0.82;;
18649;SDS011;9454;53.516;10.478;2022-10-16T09:33:29;2.15;;;0.60;;
18649;SDS011;9454;53.516;10.478;2022-10-16T09:36:34;2.35;;;0.82;;
18649;SDS011;9454;53.516;10.478;2022-10-16T09:39:43;1.63;;;0.65;;
18649;SDS011;9454;53.516;10.478;2022-10-16T09:42:47;4.50;;;0.70;;
18649;SDS011;9454;53.516;10.478;2022-10-16T09:45:53;4.38;;;0.95;;
18649;SDS011;9454;53.516;10.478;2022-10-16T09:48:57;1.35;;;0.70;;
18649;SDS011;9454;53.516;10.478;2022-10-16T09:52:04;1.30;;;0.82;;
18649;SDS011;9454;53.516;10.478;2022-10-16T09:55:13;4.38;;;0.75;;
18649;SDS011;9454;53.516;10.478;2022-10-16T09:58:20;2.70;;;0.88;;
18649;SDS011;9454;53.516;10.478;2022-10-16T10:01:24;3.60;;;0.63;;
18649;SDS011;9454;53.516;10.478;2022-10-16T10:04:36;4.68;;;1.90;;
18649;SDS011;9454;53.516;10.478;2022-10-16T10:07:42;2.15;;;1.00;;
18649;SDS011;9454;53.516;10.478;2022-10-16T10:10:45;1.05;;;0.70;;
18649;SDS011;9454;53.516;10.478;2022-10-16T10:13:51;2.78;;;0.65;;
18649;SDS011;9454;53.516;10.478;2022-10-16T10:17:02;4.45;;;0.70;;
18649;SDS011;9454;53.516;10.478;2022-10-16T10:20:15;3.85;;;0.60;;
18649;SDS011;9454;53.516;10.478;2022-10-16T10:23:20;2.25;;;0.60;;
18649;SDS011;9454;53.516;10.478;2022-10-16T10:26:23;0.88;;;0.47;;
18649;SDS011;9454;53.516;10.478;2022-10-16T10:29:40;1.20;;;0.47;;
18649;SDS011;9454;53.516;10.478;2022-10-16T10:32:47;2.72;;;0.50;;
18649;SDS011;9454;53.516;10.478;2022-10-16T10:35:56;5.30;;;0.50;;
18649;SDS011;9454;53.516;10.478;2022-10-16T10:39:00;4.00;;;0.50;;
18649;SDS011;9454;53.516;10.478;2022-10-16T10:42:09;2.80;;;0.90;;
18649;SDS011;9454;53.516;10.478;2022-10-16T10:45:18;1.70;;;0.50;;
18649;SDS011;9454;53.516;10.478;2022-10-16T10:48:40;2.25;;;0.63;;
18649;SDS011;9454;53.516;10.478;2022-10-16T10:51:51;2.17;;;0.73;;
18649;SDS011;9454;53.516;10.478;2022-10-16T10:54:57;1.63;;;0.50;;
18649;SDS011;9454;53.516;10.478;2022-10-16T10:58:08;3.15;;;0.52;;
18649;SDS011;9454;53.516;10.478;2022-10-16T11:01:14;1.35;;;0.45;;
18649;SDS011;9454;53.516;10.478;2022-10-16T11:07:43;1.33;;;0.40;;
18649;SDS011;9454;53.516;10.478;2022-10-16T11:10:50;6.60;;;0.82;;
18649;SDS011;9454;53.516;10.478;2022-10-16T11:13:55;5.03;;;0.55;;
18649;SDS011;9454;53.516;10.478;2022-10-16T11:17:02;1.67;;;0.57;;
18649;SDS011;9454;53.516;10.478;2022-10-16T11:20:12;1.40;;;0.50;;
18649;SDS011;9454;53.516;10.478;2022-10-16T11:23:16;5.43;;;0.80;;
18649;SDS011;9454;53.516;10.478;2022-10-16T11:26:21;4.13;;;0.60;;
18649;SDS011;9454;53.516;10.478;2022-10-16T11:29:26;3.55;;;1.30;;
18649;SDS011;9454;53.516;10.478;2022-10-16T11:32:39;7.55;;;0.85;;
18649;SDS011;9454;53.516;10.478;2022-10-16T11:35:46;0.85;;;0.60;;
18649;SDS011;9454;53.516;10.478;2022-10-16T11:38:51;2.03;;;0.60;;
18649;SDS011;9454;53.516;10.478;2022-10-16T11:41:57;4.68;;;0.50;;
18649;SDS011;9454;53.516;10.478;2022-10-16T11:45:02;3.72;;;0.90;;
18649;SDS011;9454;53.516;10.478;2022-10-16T11:48:12;3.45;;;0.73;;
18649;SDS011;9454;53.516;10.478;2022-10-16T11:51:19;4.80;;;0.73;;
18649;SDS011;9454;53.516;10.478;2022-10-16T11:54:25;3.60;;;1.75;;
18649;SDS011;9454;53.516;10.478;2022-10-16T11:57:31;3.05;;;1.08;;
18649;SDS011;9454;53.516;10.478;2022-10-16T12:00:37;3.08;;;0.60;;
18649;SDS011;9454;53.516;10.478;2022-10-16T12:03:43;6.43;;;1.23;;
18649;SDS011;9454;53.516;10.478;2022-10-16T12:06:52;2.22;;;0.60;;
18649;SDS011;9454;53.516;10.478;2022-10-16T12:09:57;1.30;;;0.77;;
18649;SDS011;9454;53.516;10.478;2022-10-16T12:13:02;3.78;;;0.80;;
18649;SDS011;9454;53.516;10.478;2022-10-16T12:16:05;4.50;;;0.80;;
18649;SDS011;9454;53.516;10.478;2022-10-16T12:19:11;3.50;;;0.75;;
18649;SDS011;9454;53.516;10.478;2022-10-16T12:22:15;5.95;;;0.63;;
18649;SDS011;9454;53.516;10.478;2022-10-16T12:25:21;0.88;;;0.40;;
18649;SDS011;9454;53.516;10.478;2022-10-16T12:28:43;1.23;;;0.75;;
18649;SDS011;9454;53.516;10.478;2022-10-16T12:39:33;4.72;;;0.70;;
18649;SDS011;9454;53.516;10.478;2022-10-16T12:42:39;1.58;;;0.50;;
18649;SDS011;9454;53.516;10.478;2022-10-16T12:45:46;2.67;;;1.42;;
18649;SDS011;9454;53.516;10.478;2022-10-16T12:48:52;2.30;;;0.95;;
18649;SDS011;9454;53.516;10.478;2022-10-16T12:52:22;1.20;;;0.50;;
18649;SDS011;9454;53.516;10.478;2022-10-16T12:55:30;3.00;;;0.50;;
18649;SDS011;9454;53.516;10.478;2022-10-16T12:58:47;4.45;;;0.90;;
18649;SDS011;9454;53.516;10.478;2022-10-16T13:01:57;3.97;;;0.82;;
18649;SDS011;9454;53.516;10.478;2022-10-16T13:05:11;0.82;;;0.40;;
18649;SDS011;9454;53.516;10.478;2022-10-16T13:08:32;2.20;;;0.60;;
18649;SDS011;9454;53.516;10.478;2022-10-16T13:11:46;1.42;;;0.50;;
18649;SDS011;9454;53.516;10.478;2022-10-16T13:14:56;2.15;;;0.65;;
18649;SDS011;9454;53.516;10.478;2022-10-16T13:18:06;0.50;;;0.50;;
18649;SDS011;9454;53.516;10.478;2022-10-16T13:21:17;0.98;;;0.57;;
18649;SDS011;9454;53.516;10.478;2022-10-16T13:24:25;0.38;;;0.38;;
18649;SDS011;9454;53.516;10.478;2022-10-16T13:27:34;3.17;;;0.55;;
18649;SDS011;9454;53.516;10.478;2022-10-16T13:30:38;0.98;;;0.50;;
18649;SDS011;9454;53.516;10.478;2022-10-16T13:33:45;2.13;;;0.38;;
18649;SDS011;9454;53.516;10.478;2022-10-16T13:36:52;5.30;;;0.70;;
18649;SDS011;9454;53.516;10.478;2022-10-16T13:40:02;4.22;;;0.63;;
18649;SDS011;9454;53.516;10.478;2022-10-16T13:43:07;3.65;;;0.80;;
18649;SDS011;9454;53.516;10.478;2022-10-16T13:46:11;4.88;;;0.60;;
18649;SDS011;9454;53.516;10.478;2022-10-16T13:49:15;0.85;;;0.52;;
18649;SDS011;9454;53.516;10.478;2022-10-16T13:52:19;3.63;;;0.70;;
18649;SDS011;9454;53.516;10.478;2022-10-16T13:55:22;7.93;;;0.82;;
18649;SDS011;9454;53.516;10.478;2022-10-16T13:58:29;3.38;;;0.65;;
18649;SDS011;9454;53.516;10.478;2022-10-16T14:01:39;1.27;;;0.52;;
18649;SDS011;9454;53.516;10.478;2022-10-16T14:04:45;2.80;;;0.65;;
18649;SDS011;9454;53.516;10.478;2022-10-16T14:07:51;1.92;;;0.73;;
18649;SDS011;9454;53.516;10.478;2022-10-16T14:10:55;2.47;;;0.60;;
18649;SDS011;9454;53.516;10.478;2022-10-16T14:14:00;6.00;;;0.70;;
18649;SDS011;9454;53.516;10.478;2022-10-16T14:17:05;3.97;;;0.70;;
18649;SDS011;9454;53.516;10.478;2022-10-16T14:20:12;2.50;;;0.70;;
18649;SDS011;9454;53.516;10.478;2022-10-16T14:23:19;3.13;;;0.52;;
18649;SDS011;9454;53.516;10.478;2022-10-16T14:26:23;1.27;;;0.85;;
18649;SDS011;9454;53.516;10.478;2022-10-16T14:29:28;2.83;;;0.82;;
18649;SDS011;9454;53.516;10.478;2022-10-16T14:32:32;3.92;;;0.85;;
18649;SDS011;9454;53.516;10.478;2022-10-16T14:35:35;4.03;;;0.85;;
18649;SDS011;9454;53.516;10.478;2022-10-16T14:38:39;4.88;;;0.73;;
18649;SDS011;9454;53.516;10.478;2022-10-16T14:41:43;2.38;;;0.60;;
18649;SDS011;9454;53.516;10.478;2022-10-16T14:44:48;3.03;;;0.63;;
18649;SDS011;9454;53.516;10.478;2022-10-16T14:47:54;2.63;;;0.50;;
18649;SDS011;9454;53.516;10.478;2022-10-16T14:50:58;0.98;;;0.50;;
18649;SDS011;9454;53.516;10.478;2022-10-16T14:54:00;4.30;;;0.90;;
18649;SDS011;9454;53.516;10.478;2022-10-16T14:57:15;6.68;;;0.70;;
18649;SDS011;9454;53.516;10.478;2022-10-16T15:00:21;0.88;;;0.68;;
18649;SDS011;9454;53.516;10.478;2022-10-16T15:03:24;2.53;;;0.68;;
18649;SDS011;9454;53.516;10.478;2022-10-16T15:06:27;2.35;;;0.80;;
18649;SDS011;9454;53.516;10.478;2022-10-16T15:09:30;2.70;;;1.20;;
18649;SDS011;9454;53.516;10.478;2022-10-16T15:12:33;4.13;;;1.63;;
18649;SDS011;9454;53.516;10.478;2022-10-16T15:15:38;2.08;;;1.30;;
18649;SDS011;9454;53.516;10.478;2022-10-16T15:18:42;2.10;;;0.98;;
18649;SDS011;9454;53.516;10.478;2022-10-16T15:21:45;8.15;;;0.75;;
18649;SDS011;9454;53.516;10.478;2022-10-16T15:24:47;2.72;;;0.70;;
18649;SDS011;9454;53.516;10.478;2022-10-16T15:27:52;4.93;;;0.73;;
18649;SDS011;9454;53.516;10.478;2022-10-16T15:30:56;1.70;;;0.90;;
18649;SDS011;9454;53.516;10.478;2022-10-16T15:33:59;0.73;;;0.40;;
18649;SDS011;9454;53.516;10.478;2022-10-16T15:37:05;6.05;;;0.77;;
18649;SDS011;9454;53.516;10.478;2022-10-16T15:40:08;1.27;;;0.60;;
18649;SDS011;9454;53.516;10.478;2022-10-16T15:43:13;5.55;;;0.80;;
18649;SDS011;9454;53.516;10.478;2022-10-16T15:46:18;0.75;;;0.40;;
18649;SDS011;9454;53.516;10.478;2022-10-16T15:49:21;2.45;;;0.68;;
18649;SDS011;9454;53.516;10.478;2022-10-16T15:52:24;1.25;;;0.57;;
18649;SDS011;9454;53.516;10.478;2022-10-16T15:55:27;2.00;;;0.60;;
18649;SDS011;9454;53.516;10.478;2022-10-16T15:58:29;4.22;;;0.90;;
18649;SDS011;9454;53.516;10.478;2022-10-16T16:01:34;6.85;;;0.80;;
18649;SDS011;9454;53.516;10.478;2022-10-16T16:04:37;3.05;;;0.80;;
18649;SDS011;9454;53.516;10.478;2022-10-16T16:07:45;3.55;;;0.88;;
18649;SDS011;9454;53.516;10.478;2022-10-16T16:10:57;4.80;;;0.98;;
18649;SDS011;9454;53.516;10.478;2022-10-16T16:13:59;1.00;;;0.40;;
18649;SDS011;9454;53.516;10.478;2022-10-16T16:17:03;4.18;;;0.93;;
18649;SDS011;9454;53.516;10.478;2022-10-16T16:20:06;6.18;;;1.95;;
18649;SDS011;9454;53.516;10.478;2022-10-16T16:23:09;4.55;;;2.72;;
18649;SDS011;9454;53.516;10.478;2022-10-16T16:26:12;6.25;;;1.95;;
18649;SDS011;9454;53.516;10.478;2022-10-16T16:29:15;5.20;;;1.60;;
18649;SDS011;9454;53.516;10.478;2022-10-16T16:32:19;5.78;;;1.15;;
18649;SDS011;9454;53.516;10.478;2022-10-16T16:35:22;2.95;;;1.10;;
18649;SDS011;9454;53.516;10.478;2022-10-16T16:38:25;4.00;;;1.10;;
18649;SDS011;9454;53.516;10.478;2022-10-16T16:41:28;7.25;;;1.42;;
18649;SDS011;9454;53.516;10.478;2022-10-16T16:44:32;2.42;;;1.00;;
18649;SDS011;9454;53.516;10.478;2022-10-16T16:47:36;3.45;;;1.25;;
18649;SDS011;9454;53.516;10.478;2022-10-16T16:50:39;4.90;;;1.15;;
18649;SDS011;9454;53.516;10.478;2022-10-16T16:53:42;3.50;;;1.15;;
18649;SDS011;9454;53.516;10.478;2022-10-16T16:56:45;2.35;;;1.23;;
18649;SDS011;9454;53.516;10.478;2022-10-16T16:59:49;4.22;;;1.15;;
18649;SDS011;9454;53.516;10.478;2022-10-16T17:02:54;3.38;;;1.30;;
18649;SDS011;9454;53.516;10.478;2022-10-16T17:05:56;3.10;;;1.27;;
18649;SDS011;9454;53.516;10.478;2022-10-16T17:09:00;3.67;;;1.33;;
18649;SDS011;9454;53.516;10.478;2022-10-16T17:12:04;4.03;;;1.02;;
18649;SDS011;9454;53.516;10.478;2022-10-16T17:15:08;4.15;;;1.15;;
18649;SDS011;9454;53.516;10.478;2022-10-16T17:18:12;5.15;;;1.00;;
18649;SDS011;9454;53.516;10.478;2022-10-16T17:21:15;3.42;;;1.38;;
18649;SDS011;9454;53.516;10.478;2022-10-16T17:24:18;1.80;;;1.13;;
18649;SDS011;9454;53.516;10.478;2022-10-16T17:27:22;3.50;;;1.70;;
18649;SDS011;9454;53.516;10.478;2022-10-16T17:30:25;3.15;;;1.30;;
18649;SDS011;9454;53.516;10.478;2022-10-16T17:33:30;4.05;;;1.30;;
18649;SDS011;9454;53.516;10.478;2022-10-16T17:36:34;3.50;;;1.65;;
18649;SDS011;9454;53.516;10.478;2022-10-16T17:39:37;4.05;;;1.83;;
18649;SDS011;9454;53.516;10.478;2022-10-16T17:42:39;5.07;;;2.05;;
18649;SDS011;9454;53.516;10.478;2022-10-16T17:45:42;2.58;;;1.83;;
18649;SDS011;9454;53.516;10.478;2022-10-16T17:48:47;9.15;;;2.10;;
18649;SDS011;9454;53.516;10.478;2022-10-16T17:51:51;5.63;;;1.92;;
18649;SDS011;9454;53.516;10.478;2022-10-16T17:54:54;3.95;;;1.92;;
18649;SDS011;9454;53.516;10.478;2022-10-16T17:57:59;8.68;;;3.80;;
18649;SDS011;9454;53.516;10.478;2022-10-16T18:01:10;10.93;;;4.15;;
18649;SDS011;9454;53.516;10.478;2022-10-16T18:04:15;8.30;;;3.20;;
18649;SDS011;9454;53.516;10.478;2022-10-16T18:07:18;3.90;;;2.47;;
18649;SDS011;9454;53.516;10.478;2022-10-16T18:10:20;7.85;;;3.55;;
18649;SDS011;9454;53.516;10.478;2022-10-16T18:13:23;10.85;;;5.13;;
18649;SDS011;9454;53.516;10.478;2022-10-16T18:16:26;12.27;;;4.07;;
18649;SDS011;9454;53.516;10.478;2022-10-16T18:19:31;7.13;;;3.28;;
18649;SDS011;9454;53.516;10.478;2022-10-16T18:22:34;6.85;;;3.60;;
18649;SDS011;9454;53.516;10.478;2022-10-16T18:25:37;6.68;;;3.05;;
18649;SDS011;9454;53.516;10.478;2022-10-16T18:28:40;8.43;;;2.72;;
18649;SDS011;9454;53.516;10.478;2022-10-16T18:31:43;15.80;;;3.25;;
18649;SDS011;9454;53.516;10.478;2022-10-16T18:34:49;6.18;;;3.10;;
18649;SDS011;9454;53.516;10.478;2022-10-16T18:37:54;9.50;;;2.63;;
18649;SDS011;9454;53.516;10.478;2022-10-16T18:41:01;10.63;;;2.90;;
18649;SDS011;9454;53.516;10.478;2022-10-16T18:44:05;8.05;;;3.05;;
18649;SDS011;9454;53.516;10.478;2022-10-16T18:47:10;14.50;;;4.10;;
18649;SDS011;9454;53.516;10.478;2022-10-16T18:50:16;11.63;;;5.15;;
18649;SDS011;9454;53.516;10.478;2022-10-16T18:53:21;22.95;;;11.00;;
18649;SDS011;9454;53.516;10.478;2022-10-16T18:56:23;17.13;;;7.95;;